Time;durP1;ratioP1;P1;durP2;ratioP2;P2;SDS_P1;SDS_P2;PMS_P1;PMS_P2;Temp;Humidity;BMP_temperature;BMP_pressure;BME280_temperature;BME280_humidity;BME280_pressure;Samples;Min_cycle;Max_cycle;Signal;HPM_P1;HPM_P2
2022/01/29 00:01:15;;;;;;;2.22;0.70;;;;;;;0.62;100.00;98530.14;1720663;82;21123;-64
2022/01/29 00:03:42;;;;;;;;;;;;;;;0.63;100.00;98538.47;1644990;86;21102;-64
2022/01/29 00:06:09;;;;;;;2.00;0.90;;;;;;;0.62;100.00;98534.97;1657825;85;20116;-64
2022/01/29 00:08:36;;;;;;;1.45;0.55;;;;;;;0.56;100.00;98542.63;1669177;85;21059;-63
2022/01/29 00:11:10;;;;;;;3.27;0.70;;;;;;;0.55;100.00;98549.54;1668619;85;21048;-63
2022/01/29 00:13:31;;;;;;;2.25;0.60;;;;;;;0.53;100.00;98552.47;1712843;82;21073;-63
2022/01/29 00:15:57;;;;;;;1.40;0.50;;;;;;;0.52;100.00;98549.50;1712154;82;21071;-64
2022/01/29 00:18:24;;;;;;;;;;;;;;;0.53;100.00;98550.31;1727573;82;21115;-63
2022/01/29 00:20:50;;;;;;;1.90;0.40;;;;;;;0.53;100.00;98558.34;1725356;82;20205;-64
2022/01/29 00:23:17;;;;;;;;;;;;;;;0.50;100.00;98560.43;1737734;82;21063;-65
2022/01/29 00:25:43;;;;;;;1.75;0.50;;;;;;;0.47;100.00;98572.95;1727656;81;20101;-64
2022/01/29 00:28:11;;;;;;;2.77;0.90;;;;;;;0.43;100.00;98563.76;1719991;81;21046;-64
2022/01/29 00:30:42;;;;;;;2.62;0.80;;;;;;;0.44;100.00;98568.59;1735600;82;21039;-64
2022/01/29 00:33:06;;;;;;;1.82;0.60;;;;;;;0.44;100.00;98568.59;1714217;83;21448;-64
2022/01/29 00:35:33;;;;;;;2.08;0.98;;;;;;;0.45;100.00;98575.58;1729748;82;21090;-64
2022/01/29 00:37:59;;;;;;;1.55;0.60;;;;;;;0.45;100.00;98579.08;1743257;82;21046;-64
2022/01/29 00:40:26;;;;;;;1.67;0.80;;;;;;;0.45;100.00;98570.23;1725808;82;21102;-64
2022/01/29 00:42:53;;;;;;;;;;;;;;;0.45;100.00;98584.44;1732693;82;21085;-63
2022/01/29 00:45:19;;;;;;;2.00;0.62;;;;;;;0.45;100.00;98588.97;1753129;82;20130;-63
2022/01/29 00:47:45;;;;;;;1.70;0.60;;;;;;;0.42;100.00;98582.75;1743760;82;21074;-64
2022/01/29 00:50:12;;;;;;;1.25;0.50;;;;;;;0.43;100.00;98589.72;1725777;82;21453;-63
2022/01/29 00:52:39;;;;;;;1.52;0.50;;;;;;;0.45;100.00;98588.45;1731375;82;21039;-64
2022/01/29 00:55:07;;;;;;;1.50;0.72;;;;;;;0.46;100.00;98586.04;1751001;82;21026;-64
2022/01/29 00:57:37;;;;;;;1.52;0.60;;;;;;;0.49;100.00;98590.95;1734499;81;21398;-64
2022/01/29 01:00:06;;;;;;;1.10;0.57;;;;;;;0.49;100.00;98594.16;1723235;82;21015;-64
2022/01/29 01:02:34;;;;;;;1.52;0.55;;;;;;;0.53;100.00;98598.52;1729996;82;21009;-63
2022/01/29 01:05:01;;;;;;;0.82;0.40;;;;;;;0.54;100.00;98593.42;1749416;82;21082;-63
2022/01/29 01:07:28;;;;;;;0.70;0.40;;;;;;;0.53;100.00;98599.33;1751881;81;21018;-63
2022/01/29 01:09:55;;;;;;;0.72;0.42;;;;;;;0.53;100.00;98599.85;1740445;82;21066;-63
2022/01/29 01:12:21;;;;;;;1.57;0.45;;;;;;;0.53;100.00;98607.37;1729291;82;21066;-64
2022/01/29 01:14:48;;;;;;;;;;;;;;;0.54;100.00;98603.62;1747106;82;21086;-63
2022/01/29 01:17:15;;;;;;;0.93;0.42;;;;;;;0.52;100.00;98616.96;1741066;82;20433;-64
2022/01/29 01:19:43;;;;;;;1.07;0.70;;;;;;;0.42;100.00;98607.67;1734717;82;21434;-64
2022/01/29 01:22:09;;;;;;;2.22;0.80;;;;;;;0.41;100.00;98604.69;1741048;82;21125;-64
2022/01/29 01:24:36;;;;;;;2.22;0.90;;;;;;;0.41;100.00;98610.56;1727258;82;20999;-63
2022/01/29 01:27:03;;;;;;;1.30;0.62;;;;;;;0.35;100.00;98612.33;1725937;82;21600;-63
2022/01/29 01:29:30;;;;;;;1.60;1.07;;;;;;;0.32;100.00;98607.41;1721099;82;21011;-64
2022/01/29 01:31:56;;;;;;;2.05;0.80;;;;;;;0.32;100.00;98615.44;1740325;82;21015;-64
2022/01/29 01:34:24;;;;;;;;;;;;;;;0.32;100.00;98615.99;1729544;82;21071;-64
2022/01/29 01:37:00;;;;;;;2.10;1.00;;;;;;;0.32;100.00;98622.14;1740645;82;20131;-64
2022/01/29 01:39:24;;;;;;;1.75;1.00;;;;;;;0.27;100.00;98638.09;1723250;82;21054;-64
2022/01/29 01:42:49;;;;;;;1.47;0.90;;;;;;;0.31;100.00;98623.72;1812491;79;22587;-61
2022/01/29 01:45:15;;;;;;;1.07;0.70;;;;;;;0.26;100.00;98630.28;1780512;80;21042;-61
2022/01/29 01:47:42;;;;;;;1.65;1.00;;;;;;;0.28;100.00;98640.25;1740749;81;21082;-61
2022/01/29 01:50:10;;;;;;;1.52;1.15;;;;;;;0.27;100.00;98648.80;1756741;80;20998;-61
2022/01/29 01:52:43;;;;;;;1.40;0.80;;;;;;;0.27;100.00;98647.47;1761155;81;21019;-63
2022/01/29 01:55:10;;;;;;;1.77;1.07;;;;;;;0.28;100.00;98650.96;1761163;80;21056;-62
2022/01/29 01:57:36;;;;;;;;;;;;;;;0.27;100.00;98645.30;1763624;81;21122;-63
2022/01/29 02:00:04;;;;;;;2.30;1.30;;;;;;;0.28;100.00;98657.66;1753692;80;20159;-63
2022/01/29 02:02:33;;;;;;;2.40;1.52;;;;;;;0.24;100.00;98657.30;1759588;81;21050;-63
2022/01/29 02:05:00;;;;;;;1.55;1.00;;;;;;;0.23;100.00;98666.37;1760955;81;21034;-63
2022/01/29 02:07:26;;;;;;;1.80;0.90;;;;;;;0.22;100.00;98654.02;1761050;80;21145;-63
2022/01/29 02:09:53;;;;;;;1.55;0.82;;;;;;;0.21;100.00;98667.14;1759872;81;21043;-63
2022/01/29 02:12:20;;;;;;;1.42;1.10;;;;;;;0.24;100.00;98676.55;1760773;80;21113;-63
2022/01/29 02:14:46;;;;;;;2.25;1.62;;;;;;;0.25;100.00;98675.52;1761128;81;21054;-63
2022/01/29 02:17:13;;;;;;;;;;;;;;;0.23;100.00;98677.08;1763370;80;21103;-63
2022/01/29 02:19:39;;;;;;;1.65;0.90;;;;;;;0.22;100.00;98686.66;1760645;81;20145;-62
2022/01/29 02:22:06;;;;;;;2.80;1.60;;;;;;;0.19;100.00;98688.47;1761626;80;21091;-62
2022/01/29 02:24:32;;;;;;;2.10;1.52;;;;;;;0.21;100.00;98699.25;1762502;81;21470;-63
2022/01/29 02:26:59;;;;;;;2.52;1.67;;;;;;;0.21;100.00;98695.23;1761198;80;21031;-62
2022/01/29 02:29:25;;;;;;;2.20;1.40;;;;;;;0.21;100.00;98699.25;1760971;81;21014;-63
2022/01/29 02:31:55;;;;;;;2.77;2.02;;;;;;;0.18;100.00;98710.39;1761151;80;21119;-63
2022/01/29 02:34:22;;;;;;;3.05;1.80;;;;;;;0.20;100.00;98703.48;1761028;81;21017;-62
2022/01/29 02:36:49;;;;;;;;;;;;;;;0.17;100.00;98712.80;1763360;80;21014;-62
2022/01/29 02:39:21;;;;;;;1.83;1.30;;;;;;;0.18;100.00;98718.42;1760896;81;20110;-62
2022/01/29 02:41:45;;;;;;;1.77;1.10;;;;;;;0.16;100.00;98713.84;1753434;80;21476;-62
2022/01/29 02:44:16;;;;;;;1.90;1.10;;;;;;;0.16;100.00;98721.86;1748160;81;20975;-62
2022/01/29 02:46:50;;;;;;;1.87;1.37;;;;;;;0.19;100.00;98733.96;1747928;81;21027;-62
2022/01/29 02:49:19;;;;;;;3.25;1.25;;;;;;;0.18;100.00;98731.02;1746390;82;21011;-63
2022/01/29 02:51:48;;;;;;;2.20;1.40;;;;;;;0.17;100.00;98731.53;1747883;81;21554;-62
2022/01/29 02:54:14;;;;;;;1.12;0.68;;;;;;;0.19;100.00;98743.33;1747586;81;21052;-62
2022/01/29 02:56:41;;;;;;;0.90;0.50;;;;;;;0.21;100.00;98735.91;1745973;81;21032;-62
2022/01/29 02:59:07;;;;;;;0.75;0.50;;;;;;;0.21;100.00;98742.08;1726144;82;21102;-61
2022/01/29 03:01:35;;;;;;;1.77;0.68;;;;;;;0.23;100.00;98741.83;1747328;81;21133;-62
2022/01/29 03:04:02;;;;;;;2.15;1.37;;;;;;;0.25;100.00;98732.52;1747226;82;21042;-62
2022/01/29 03:06:29;;;;;;;1.12;0.33;;;;;;;0.26;100.00;98742.70;1743946;81;21078;-62
2022/01/29 03:08:56;;;;;;;0.68;0.50;;;;;;;0.27;100.00;98766.58;1739908;81;21060;-62
2022/01/29 03:11:24;;;;;;;0.90;0.30;;;;;;;0.26;100.00;98762.27;1747325;81;21630;-62
2022/01/29 03:13:51;;;;;;;1.15;0.40;;;;;;;0.27;100.00;98765.24;1747129;82;21075;-62
2022/01/29 03:16:18;;;;;;;;;;;;;;;0.28;100.00;98770.08;1749831;81;21050;-62
2022/01/29 03:18:45;;;;;;;1.47;0.30;;;;;;;0.30;100.00;98771.98;1747495;82;20146;-62
2022/01/29 03:21:11;;;;;;;0.62;0.30;;;;;;;0.26;100.00;98771.63;1711763;82;21087;-62
2022/01/29 03:23:38;;;;;;;1.27;0.30;;;;;;;0.28;100.00;98779.45;1747411;81;21049;-62
2022/01/29 03:26:05;;;;;;;0.85;0.40;;;;;;;0.30;100.00;98782.70;1747091;81;21074;-62
2022/01/29 03:28:31;;;;;;;0.88;0.40;;;;;;;0.31;100.00;98785.67;1747393;81;21960;-63
2022/01/29 03:30:59;;;;;;;0.62;0.30;;;;;;;0.33;100.00;98788.41;1747222;81;21092;-63
2022/01/29 03:33:26;;;;;;;0.62;0.30;;;;;;;0.34;100.00;98787.38;1711412;84;21060;-63
2022/01/29 03:35:52;;;;;;;0.88;0.30;;;;;;;0.36;100.00;98797.84;1741663;81;21023;-63
2022/01/29 03:38:19;;;;;;;1.82;0.55;;;;;;;0.37;100.00;98796.80;1747322;82;21080;-63
2022/01/29 03:40:48;;;;;;;;;;;;;;;0.37;100.00;98807.52;1749984;81;21127;-63
2022/01/29 03:43:23;;;;;;;0.78;0.30;;;;;;;0.38;100.00;98804.62;1719806;82;20133;-62
2022/01/29 03:45:42;;;;;;;0.78;0.30;;;;;;;0.32;100.00;98808.19;1715168;83;21051;-63
2022/01/29 03:48:08;;;;;;;1.02;0.40;;;;;;;0.32;100.00;98814.09;1720202;83;21045;-62
2022/01/29 03:50:36;;;;;;;1.70;0.30;;;;;;;0.34;100.00;98807.97;1711620;83;21073;-62
2022/01/29 03:53:03;;;;;;;0.85;0.33;;;;;;;0.36;100.00;98815.24;1718050;83;21524;-62
2022/01/29 03:55:30;;;;;;;;;;;;;;;0.37;100.00;98819.56;1720562;83;21057;-62
2022/01/29 03:57:56;;;;;;;0.60;0.30;;;;;;;0.35;100.00;98827.84;1720673;83;20099;-62
2022/01/29 04:00:23;;;;;;;1.65;0.40;;;;;;;0.31;100.00;98825.31;1719174;83;21097;-63
2022/01/29 04:02:49;;;;;;;1.50;0.40;;;;;;;0.30;100.00;98841.08;1715245;83;21059;-63
2022/01/29 04:05:16;;;;;;;1.37;0.60;;;;;;;0.27;100.00;98830.83;1672109;83;21023;-63
2022/01/29 04:07:42;;;;;;;1.82;0.60;;;;;;;0.25;100.00;98844.94;1713079;83;21127;-62
2022/01/29 04:10:09;;;;;;;;;;;;;;;0.21;100.00;98842.97;1723046;83;21639;-62
2022/01/29 04:12:42;;;;;;;2.10;0.57;;;;;;;0.21;100.00;98849.66;1717864;83;20514;-63
2022/01/29 04:15:07;;;;;;;2.27;0.60;;;;;;;0.15;100.00;98850.55;1711605;83;21099;-63
2022/01/29 04:17:34;;;;;;;2.12;0.60;;;;;;;0.11;100.00;98854.73;1687845;83;21063;-63
2022/01/29 04:20:04;;;;;;;1.22;0.45;;;;;;;0.09;100.00;98852.27;1721115;83;21012;-63
2022/01/29 04:22:30;;;;;;;0.82;0.40;;;;;;;0.12;100.00;98842.45;1718975;83;21053;-63
2022/01/29 04:24:56;;;;;;;0.80;0.30;;;;;;;0.14;100.00;98865.81;1716478;83;21026;-62
2022/01/29 04:27:32;;;;;;;0.75;0.28;;;;;;;0.18;100.00;98864.29;1717113;83;21080;-62
2022/01/29 04:29:55;;;;;;;1.00;0.30;;;;;;;0.21;100.00;98873.23;1717608;83;21029;-62
2022/01/29 04:32:29;;;;;;;0.93;0.40;;;;;;;0.25;100.00;98878.95;1711876;83;21576;-62
2022/01/29 04:34:49;;;;;;;0.37;0.20;;;;;;;0.27;100.00;98885.70;1718778;83;21044;-62
2022/01/29 04:37:15;;;;;;;0.78;0.30;;;;;;;0.30;100.00;98879.89;1720244;83;21070;-63
2022/01/29 04:39:41;;;;;;;1.25;0.40;;;;;;;0.29;100.00;98892.16;1718655;83;21015;-62
2022/01/29 04:42:08;;;;;;;1.77;0.30;;;;;;;0.26;100.00;98889.41;1725363;81;21058;-62
2022/01/29 04:44:35;;;;;;;1.37;0.40;;;;;;;0.25;100.00;98899.81;1726079;82;21030;-62
2022/01/29 04:47:01;;;;;;;1.25;0.40;;;;;;;0.21;100.00;98904.02;1711631;82;21142;-63
2022/01/29 04:49:27;;;;;;;;;;;;;;;0.17;100.00;98905.50;1750154;81;21075;-63
2022/01/29 04:51:54;;;;;;;1.17;0.60;;;;;;;0.13;100.00;98902.15;1741515;81;20134;-62
2022/01/29 04:54:20;;;;;;;1.30;0.60;;;;;;;0.07;100.00;98918.59;1747472;82;21072;-63
2022/01/29 04:56:47;;;;;;;2.72;0.90;;;;;;;0.09;100.00;98912.48;1747650;81;21096;-63
2022/01/29 04:59:13;;;;;;;2.02;1.00;;;;;;;0.09;100.00;98915.16;1747593;81;21589;-63
2022/01/29 05:01:40;;;;;;;2.33;0.90;;;;;;;0.08;100.00;98911.36;1747455;81;21034;-63
2022/01/29 05:04:06;;;;;;;2.02;1.00;;;;;;;0.08;100.00;98927.42;1747513;81;21515;-63
2022/01/29 05:06:33;;;;;;;1.57;0.70;;;;;;;0.07;100.00;98929.30;1747505;81;21084;-63
2022/01/29 05:08:59;;;;;;;;;;;;;;;0.07;100.00;98925.29;1728124;81;21045;-63
2022/01/29 05:11:26;;;;;;;1.40;0.50;;;;;;;0.07;100.00;98934.66;1747675;81;20119;-63
2022/01/29 05:13:52;;;;;;;2.50;0.68;;;;;;;0.07;100.00;98938.67;1747662;81;21578;-64
2022/01/29 05:27:05;;;;;;;1.82;0.80;;;;;;;0.17;100.00;98973.75;1747197;81;21072;-62
2022/01/29 05:29:32;;;;;;;1.90;0.80;;;;;;;0.18;100.00;98966.55;1745234;82;21041;-62
2022/01/29 05:32:02;;;;;;;1.37;0.50;;;;;;;0.20;100.00;98979.99;1746922;81;21527;-62
2022/01/29 05:34:29;;;;;;;2.52;0.90;;;;;;;0.21;100.00;98967.43;1747559;82;20967;-62
2022/01/29 05:36:55;;;;;;;1.15;0.53;;;;;;;0.22;100.00;98983.25;1747672;81;21051;-62
2022/01/29 05:39:22;;;;;;;1.30;0.50;;;;;;;0.21;100.00;98987.51;1747870;82;20974;-63
2022/01/29 05:41:49;;;;;;;1.50;0.60;;;;;;;0.20;100.00;98988.02;1735986;81;21115;-62
2022/01/29 05:44:16;;;;;;;2.05;0.68;;;;;;;0.20;100.00;98996.56;1747896;82;20967;-63
2022/01/29 05:46:42;;;;;;;2.42;0.95;;;;;;;0.14;100.00;98988.92;1746824;81;21648;-62
2022/01/29 05:49:08;;;;;;;;;;;;;;;0.19;100.00;99002.95;1750533;82;21510;-62
2022/01/29 05:51:35;;;;;;;3.17;1.10;;;;;;;0.19;100.00;99004.29;1746646;81;20094;-62
2022/01/29 05:54:02;;;;;;;2.17;0.85;;;;;;;0.16;100.00;99010.09;1747964;81;21535;-63
2022/01/29 05:56:28;;;;;;;;;;;;;;;0.16;100.00;99010.91;1748061;81;21019;-61
2022/01/29 05:58:56;;;;;;;2.42;1.10;;;;;;;0.16;100.00;99021.62;1747378;81;20103;-62
2022/01/29 06:01:22;;;;;;;2.33;1.12;;;;;;;0.13;100.00;99022.59;1747246;81;21058;-62
2022/01/29 06:03:49;;;;;;;2.83;1.05;;;;;;;0.13;100.00;99019.91;1747423;82;21491;-62
2022/01/29 06:06:16;;;;;;;1.50;0.60;;;;;;;0.13;100.00;99018.05;1747327;81;21132;-62
2022/01/29 06:08:43;;;;;;;2.35;0.93;;;;;;;0.15;100.00;99033.87;1746442;82;21105;-62
2022/01/29 06:11:09;;;;;;;1.80;0.80;;;;;;;0.13;100.00;99034.11;1747637;81;21055;-63
2022/01/29 06:13:37;;;;;;;2.00;0.90;;;;;;;0.14;100.00;99046.47;1747503;81;21519;-63
2022/01/29 06:16:05;;;;;;;2.67;0.82;;;;;;;0.13;100.00;99035.45;1747765;81;21623;-64
2022/01/29 06:18:32;;;;;;;2.35;1.20;;;;;;;0.14;100.00;99037.09;1747512;82;21040;-63
2022/01/29 06:21:03;;;;;;;2.42;1.00;;;;;;;0.15;100.00;99045.41;1747359;80;21137;-63
2022/01/29 06:23:31;;;;;;;2.62;1.22;;;;;;;0.20;100.00;99038.05;1745166;81;21042;-63
2022/01/29 06:25:59;;;;;;;2.50;1.55;;;;;;;0.17;100.00;99050.03;1747393;81;21068;-64
2022/01/29 06:28:25;;;;;;;2.58;1.50;;;;;;;0.16;100.00;99050.24;1747552;81;21557;-63
2022/01/29 06:30:52;;;;;;;3.20;1.80;;;;;;;0.15;100.00;99062.80;1747652;81;21672;-64
2022/01/29 06:33:18;;;;;;;3.02;1.50;;;;;;;0.13;100.00;99066.23;1747988;82;21494;-64
2022/01/29 06:35:45;;;;;;;3.20;1.15;;;;;;;0.09;100.00;99066.88;1747694;81;21627;-64
2022/01/29 06:38:13;;;;;;;2.40;1.40;;;;;;;0.05;100.00;99071.86;1747758;82;21558;-64
2022/01/29 06:40:40;;;;;;;3.50;1.52;;;;;;;-0.01;100.00;99076.76;1747152;81;21146;-64
2022/01/29 06:43:07;;;;;;;3.37;1.45;;;;;;;-0.06;100.00;99077.92;1733658;82;21067;-64
2022/01/29 06:45:36;;;;;;;2.37;1.20;;;;;;;-0.07;100.00;99077.10;1715829;83;21073;-64
2022/01/29 06:48:03;;;;;;;4.17;2.08;;;;;;;-0.04;100.00;99079.88;1717603;83;21009;-64
2022/01/29 06:50:32;;;;;;;5.00;2.25;;;;;;;-0.04;100.00;99088.70;1719204;82;21103;-64
2022/01/29 06:52:58;;;;;;;;;;;;;;;-0.06;100.00;99081.94;1720673;83;21584;-64
2022/01/29 06:55:24;;;;;;;3.60;1.52;;;;;;;-0.09;100.00;99096.58;1714834;83;20122;-63
2022/01/29 06:57:51;;;;;;;5.28;1.40;;;;;;;-0.11;100.00;99103.20;1719083;83;21578;-63
2022/01/29 07:00:17;;;;;;;;;;;;;;;-0.12;100.00;99101.03;1715064;82;20991;-63
2022/01/29 07:02:44;;;;;;;5.35;1.60;;;;;;;-0.06;100.00;99107.36;1720311;83;20115;-63
2022/01/29 07:05:12;;;;;;;4.65;1.27;;;;;;;-0.06;100.00;99097.98;1718272;83;21003;-63
2022/01/29 07:07:38;;;;;;;4.65;1.40;;;;;;;-0.05;100.00;99108.48;1717809;83;21082;-64
2022/01/29 07:10:08;;;;;;;1.52;0.90;;;;;;;-0.03;100.00;99105.58;1718644;82;21012;-63
2022/01/29 07:12:40;;;;;;;2.45;1.00;;;;;;;-0.03;100.00;99110.41;1717657;83;21056;-63
2022/01/29 07:15:08;;;;;;;1.55;0.62;;;;;;;-0.06;100.00;99112.19;1704105;82;21506;-64
2022/01/29 07:17:35;;;;;;;1.25;0.50;;;;;;;-0.04;100.00;99125.37;1711338;83;21068;-64
2022/01/29 07:20:02;;;;;;;1.98;0.85;;;;;;;-0.05;100.00;99123.20;1720309;83;21064;-62
2022/01/29 07:22:28;;;;;;;2.77;0.88;;;;;;;-0.12;100.00;99118.94;1719935;83;21085;-62
2022/01/29 07:24:55;;;;;;;2.55;1.05;;;;;;;-0.09;100.00;99128.69;1710676;83;21094;-62
2022/01/29 07:27:21;;;;;;;;;;;;;;;-0.08;100.00;99134.34;1722677;83;21076;-62
2022/01/29 07:29:48;;;;;;;2.80;0.60;;;;;;;-0.03;100.00;99126.47;1722343;83;20162;-62
2022/01/29 07:32:14;;;;;;;1.85;0.80;;;;;;;-0.08;100.00;99132.19;1716800;82;21092;-62
2022/01/29 07:34:42;;;;;;;1.90;0.80;;;;;;;-0.07;100.00;99142.65;1703334;83;21075;-62
2022/01/29 07:37:09;;;;;;;2.80;1.00;;;;;;;-0.07;100.00;99137.30;1717789;83;21019;-61
2022/01/29 07:39:35;;;;;;;;;;;;;;;-0.08;100.00;99147.73;1718292;83;21221;-62
2022/01/29 07:42:04;;;;;;;2.33;1.20;;;;;;;-0.09;100.00;99146.59;1715314;83;20144;-62
2022/01/29 07:44:30;;;;;;;3.10;1.20;;;;;;;-0.09;100.00;99157.30;1722724;82;21007;-62
2022/01/29 07:46:57;;;;;;;2.60;1.07;;;;;;;-0.07;100.00;99160.56;1748286;81;21058;-62
2022/01/29 07:49:23;;;;;;;2.50;0.75;;;;;;;-0.07;100.00;99167.25;1740590;82;21015;-62
2022/01/29 07:51:49;;;;;;;3.55;1.40;;;;;;;-0.05;100.00;99157.16;1753092;81;21495;-62
2022/01/29 07:54:16;;;;;;;3.85;1.30;;;;;;;-0.08;100.00;99172.32;1724636;82;21060;-62
2022/01/29 07:56:43;;;;;;;2.33;1.17;;;;;;;-0.08;100.00;99170.98;1753631;80;21071;-62
2022/01/29 07:59:10;;;;;;;2.50;1.20;;;;;;;-0.07;100.00;99182.78;1752988;82;21590;-62
2022/01/29 08:01:36;;;;;;;2.10;0.80;;;;;;;-0.07;100.00;99174.76;1753002;81;21542;-62
2022/01/29 08:04:03;;;;;;;;;;;;;;;-0.07;100.00;99180.63;1750529;82;21003;-62
2022/01/29 08:06:31;;;;;;;;;;;;;;;-0.03;100.00;99185.84;1725962;82;20109;-62
2022/01/29 08:08:57;;;;;;;2.52;0.90;;;;;;;-0.02;100.00;99176.80;1723356;83;20093;-62
2022/01/29 08:11:24;;;;;;;3.60;1.40;;;;;;;-0.01;100.00;99186.47;1748221;80;21130;-62
2022/01/29 08:13:51;;;;;;;2.12;0.90;;;;;;;0.02;100.00;99183.36;1744186;82;21068;-62
2022/01/29 08:16:19;;;;;;;2.85;1.10;;;;;;;0.07;100.00;99192.91;1751990;80;21080;-61
2022/01/29 08:18:46;;;;;;;3.00;1.22;;;;;;;0.11;100.00;99188.73;1753238;81;21083;-61
2022/01/29 08:21:14;;;;;;;2.42;1.12;;;;;;;0.15;100.00;99191.79;1750195;80;21081;-66
2022/01/29 08:23:41;;;;;;;2.95;1.35;;;;;;;0.14;100.00;99187.50;1752033;82;21031;-66
2022/01/29 08:26:09;;;;;;;3.62;1.47;;;;;;;0.13;100.00;99189.34;1752876;80;21012;-66
2022/01/29 08:28:36;;;;;;;2.55;1.35;;;;;;;0.12;100.00;99199.75;1752642;82;21044;-66
2022/01/29 08:31:02;;;;;;;2.33;1.40;;;;;;;0.13;100.00;99180.50;1750772;81;21475;-67
2022/01/29 08:33:29;;;;;;;2.27;1.10;;;;;;;0.16;100.00;99196.94;1752737;82;21679;-66
2022/01/29 08:35:57;;;;;;;3.52;1.37;;;;;;;0.18;100.00;99201.54;1743816;81;21126;-66
2022/01/29 08:38:25;;;;;;;2.90;1.27;;;;;;;0.20;100.00;99196.80;1747604;81;21118;-67
2022/01/29 08:40:53;;;;;;;4.22;1.50;;;;;;;0.19;100.00;99201.03;1751721;80;21437;-67
2022/01/29 08:43:19;;;;;;;3.67;1.12;;;;;;;0.19;100.00;99198.35;1752297;81;21092;-68
2022/01/29 08:45:46;;;;;;;2.85;1.10;;;;;;;0.22;100.00;99210.78;1754661;82;21078;-69
2022/01/29 08:48:12;;;;;;;2.02;1.10;;;;;;;0.23;100.00;99197.70;1755909;82;21133;-69
2022/01/29 08:50:40;;;;;;;3.85;1.30;;;;;;;0.23;100.00;99221.80;1754248;81;21082;-68
2022/01/29 08:53:07;;;;;;;3.08;1.65;;;;;;;0.25;100.00;99209.00;1752502;81;21036;-69
2022/01/29 08:55:36;;;;;;;;;;;;;;;0.26;100.00;99220.53;1751085;81;21087;-70
2022/01/29 08:58:12;;;;;;;3.30;1.70;;;;;;;0.26;100.00;99224.55;1745090;82;20126;-71
2022/01/29 09:00:41;;;;;;;5.05;1.85;;;;;;;0.21;100.00;99213.18;1737091;82;21541;-71
2022/01/29 09:03:08;;;;;;;3.15;1.70;;;;;;;0.23;100.00;99220.97;1753559;81;21020;-72
2022/01/29 09:05:35;;;;;;;;;;;;;;;0.23;100.00;99229.83;1751407;81;21078;-69
2022/01/29 09:08:03;;;;;;;3.00;1.50;;;;;;;0.21;100.00;99231.09;1741039;81;20169;-70
2022/01/29 09:10:31;;;;;;;3.40;1.65;;;;;;;0.18;100.00;99226.17;1750230;81;21110;-71
2022/01/29 09:13:00;;;;;;;5.53;2.60;;;;;;;0.19;100.00;99226.45;1756146;81;21102;-70
2022/01/29 09:15:26;;;;;;;;;;;;;;;0.23;100.00;99227.16;1758340;82;21121;-70
2022/01/29 09:17:54;;;;;;;2.77;1.00;;;;;;;0.27;100.00;99231.55;1749764;81;20115;-71
2022/01/29 09:20:20;;;;;;;2.52;1.30;;;;;;;0.21;100.00;99228.41;1743945;81;21046;-70
2022/01/29 09:22:47;;;;;;;3.40;1.67;;;;;;;0.22;100.00;99238.06;1753762;81;21025;-69
2022/01/29 09:25:13;;;;;;;2.75;1.30;;;;;;;0.24;100.00;99230.66;1750677;81;21109;-69
2022/01/29 09:27:40;;;;;;;2.77;1.40;;;;;;;0.29;100.00;99246.35;1750956;81;21690;-69
2022/01/29 09:30:08;;;;;;;3.08;1.22;;;;;;;0.31;100.00;99237.60;1752475;82;21038;-67
2022/01/29 09:32:35;;;;;;;3.22;1.17;;;;;;;0.32;100.00;99240.56;1749817;82;21007;-67
2022/01/29 09:35:02;;;;;;;2.58;1.10;;;;;;;0.30;100.00;99243.98;1748340;80;21085;-67
2022/01/29 09:37:28;;;;;;;;;;;;;;;0.30;100.00;99245.33;1754696;81;21556;-67
2022/01/29 09:39:55;;;;;;;2.30;1.05;;;;;;;0.31;100.00;99246.97;1745670;80;20110;-67
2022/01/29 09:42:22;;;;;;;;;;;;;;;0.26;100.00;99254.82;1746902;81;22599;-68
2022/01/29 09:44:49;;;;;;;4.97;1.55;;;;;;;0.24;100.00;99256.91;1748740;80;20396;-67
2022/01/29 09:47:18;;;;;;;3.87;1.70;;;;;;;0.18;100.00;99260.43;1745958;81;21072;-67
2022/01/29 09:49:45;;;;;;;2.92;1.40;;;;;;;0.18;100.00;99258.30;1741317;81;21012;-67
2022/01/29 09:52:11;;;;;;;;;;;;;;;0.13;100.00;99254.92;1744412;81;21084;-67
2022/01/29 09:54:39;;;;;;;5.60;2.50;;;;;;;0.16;100.00;99258.50;1751970;82;20123;-68
2022/01/29 09:57:06;;;;;;;4.08;1.40;;;;;;;0.11;100.00;99260.99;1747924;80;21031;-68
2022/01/29 09:59:32;;;;;;;3.50;1.47;;;;;;;0.12;100.00;99264.49;1747058;82;21078;-68
2022/01/29 10:01:59;;;;;;;;;;;;;;;0.13;100.00;99258.11;1749145;81;21560;-67
2022/01/29 10:04:27;;;;;;;3.58;1.90;;;;;;;0.11;100.00;99261.54;1746967;82;20096;-67
2022/01/29 10:07:19;;;;;;;3.85;1.80;;;;;;;0.11;100.00;99268.23;1735260;81;21027;-67
2022/01/29 10:09:48;;;;;;;4.05;1.45;;;;;;;0.12;100.00;99269.84;1744153;82;21041;-67
2022/01/29 10:12:28;;;;;;;3.70;2.00;;;;;;;0.12;100.00;99274.69;1746556;81;20996;-68
2022/01/29 10:14:57;;;;;;;3.55;1.67;;;;;;;0.13;100.00;99284.36;1719604;81;21577;-68
2022/01/29 10:17:47;;;;;;;2.60;1.17;;;;;;;0.14;100.00;99283.34;1717650;82;21035;-67
2022/01/29 10:20:26;;;;;;;2.90;1.20;;;;;;;0.13;100.00;99276.84;1747014;80;21493;-67
2022/01/29 10:22:55;;;;;;;3.33;1.20;;;;;;;0.12;100.00;99283.23;1748221;81;21007;-68
2022/01/29 10:25:26;;;;;;;2.70;1.20;;;;;;;0.12;100.00;99275.20;1746869;81;21691;-67
2022/01/29 10:28:18;;;;;;;2.25;1.00;;;;;;;0.14;100.00;99275.82;1747296;82;20975;-67
2022/01/29 10:30:56;;;;;;;3.12;0.80;;;;;;;0.14;100.00;99292.70;1747158;81;21047;-67
2022/01/29 10:33:37;;;;;;;1.87;1.05;;;;;;;0.12;100.00;99290.75;1747603;81;21011;-67
2022/01/29 10:36:10;;;;;;;2.30;1.10;;;;;;;0.15;100.00;99284.95;1746586;81;21023;-67
2022/01/29 10:38:45;;;;;;;1.75;0.82;;;;;;;0.13;100.00;99295.07;1725674;82;21018;-67
2022/01/29 10:41:25;;;;;;;4.20;0.80;;;;;;;0.13;100.00;99284.87;1748816;81;21641;-67
2022/01/29 10:46:50;;;;;;;3.37;1.15;;;;;;;0.13;100.00;99291.57;1701117;82;21027;-67
2022/01/29 10:49:22;;;;;;;2.27;1.10;;;;;;;0.15;100.00;99287.63;1689901;83;21523;-67
2022/01/29 10:52:01;;;;;;;3.52;1.70;;;;;;;0.18;100.00;99281.84;1717983;82;21123;-67
2022/01/29 10:54:29;;;;;;;4.97;1.95;;;;;;;0.22;100.00;99288.92;1709342;83;21094;-67
2022/01/29 10:57:02;;;;;;;3.72;1.80;;;;;;;0.26;100.00;99288.28;1716696;82;21875;-67
2022/01/29 10:59:34;;;;;;;3.35;1.80;;;;;;;0.31;100.00;99290.33;1717135;83;21534;-67
2022/01/29 11:02:07;;;;;;;3.83;1.65;;;;;;;0.34;100.00;99292.56;1717267;83;21049;-67
2022/01/29 11:04:36;;;;;;;4.97;1.47;;;;;;;0.38;100.00;99297.80;1692692;83;21874;-67
2022/01/29 11:07:09;;;;;;;2.05;0.95;;;;;;;0.38;100.00;99295.94;1709367;83;21106;-67
2022/01/29 11:09:34;;;;;;;3.08;1.37;;;;;;;0.42;100.00;99293.65;1716945;82;21027;-66
2022/01/29 11:12:04;;;;;;;3.90;2.00;;;;;;;0.41;100.00;99292.83;1719508;82;21068;-67
2022/01/29 11:14:32;;;;;;;6.37;4.00;;;;;;;0.44;100.00;99298.25;1714103;83;21026;-67
2022/01/29 11:16:59;;;;;;;5.55;2.90;;;;;;;0.49;100.00;99303.28;1685381;83;21043;-68
2022/01/29 11:19:26;;;;;;;4.42;2.22;;;;;;;0.58;100.00;99299.80;1718508;83;21059;-69
2022/01/29 11:21:54;;;;;;;4.40;1.62;;;;;;;0.64;100.00;99301.59;1713833;82;21107;-68
2022/01/29 11:24:23;;;;;;;3.67;1.50;;;;;;;0.71;100.00;99301.56;1707045;83;21027;-69
2022/01/29 11:26:50;;;;;;;3.83;2.00;;;;;;;0.65;100.00;99303.76;1716196;82;21060;-66
2022/01/29 11:29:35;;;;;;;5.75;2.20;;;;;;;0.59;100.00;99305.47;1714747;83;21510;-68
2022/01/29 11:32:27;;;;;;;7.33;3.02;;;;;;;0.58;100.00;99305.67;1717514;82;21032;-68
2022/01/29 11:35:20;;;;;;;4.25;1.60;;;;;;;0.58;100.00;99301.66;1723359;82;21026;-67
2022/01/29 11:37:54;;;;;;;7.20;4.37;;;;;;;0.66;100.00;99306.75;1712416;82;21530;-69
2022/01/29 11:40:36;;;;;;;5.97;2.72;;;;;;;0.68;100.00;99297.95;1716537;82;21614;-69
2022/01/29 11:43:21;;;;;;;29.70;24.05;;;;;;;0.70;100.00;99306.10;1717240;82;21039;-66
2022/01/29 11:46:03;;;;;;;5.95;3.40;;;;;;;0.78;100.00;99308.48;1737809;82;21024;-65
2022/01/29 11:48:34;;;;;;;5.30;1.45;;;;;;;0.88;100.00;99309.35;1746297;82;21027;-66
2022/01/29 11:51:02;;;;;;;3.87;1.50;;;;;;;0.94;100.00;99311.97;1747005;82;21076;-66
2022/01/29 11:53:51;;;;;;;4.75;1.92;;;;;;;1.04;100.00;99322.18;1744022;82;20968;-68
2022/01/29 11:56:38;;;;;;;3.67;1.92;;;;;;;1.05;100.00;99314.45;1749870;82;21464;-68
2022/01/29 11:59:30;;;;;;;5.05;1.82;;;;;;;1.00;100.00;99320.98;1747768;82;21498;-68